Terminal Aerodrome Forecast
Issued by NWS

Home | Current Version | Previous Version | Graphics & Text | Print | Product List | Glossary On
Versions: 1 2 3 4 5 6 7 8 9 10 11 12 13 14 15 16 17 18 19
000
FTUS43 KGRB 201722
TAFRHI
TAF
KRHI 201722Z 2018/2118 19009KT P6SM BKN150
     FM202300 21010KT P6SM BKN120 WS016/23040KT
     FM210200 23011KT P6SM SCT120 BKN250 WS016/26045KT
     FM210600 25011KT P6SM SCT120 BKN250 WS016/28035KT
     FM210900 27013G18KT P6SM SCT050 OVC100 WS016/29030KT
     FM211200 28014G20KT P6SM BKN040
     FM211500 29015G24KT P6SM -SHSN BKN030=

USA.gov is the U.S. government's official web portal to all federal, state and local government web resources and services.